sensor_id;sensor_type;location;lat;lon;timestamp;P1;durP1;ratioP1;P2;durP2;ratioP2
5630;SDS011;2837;50.990;7.124;2023-07-20T05:00:39;151.27;;;11.30;;
5630;SDS011;2837;50.990;7.124;2023-07-20T05:03:05;150.17;;;10.57;;
5630;SDS011;2837;50.990;7.124;2023-07-20T05:05:31;150.57;;;10.80;;
5630;SDS011;2837;50.990;7.124;2023-07-20T05:07:57;151.47;;;10.03;;
5630;SDS011;2837;50.990;7.124;2023-07-20T05:10:23;149.07;;;9.87;;
5630;SDS011;2837;50.990;7.124;2023-07-20T05:12:49;150.20;;;10.37;;
5630;SDS011;2837;50.990;7.124;2023-07-20T05:15:15;150.63;;;10.27;;
5630;SDS011;2837;50.990;7.124;2023-07-20T05:17:41;149.80;;;9.80;;
5630;SDS011;2837;50.990;7.124;2023-07-20T05:20:07;150.23;;;10.10;;
5630;SDS011;2837;50.990;7.124;2023-07-20T05:22:37;151.97;;;9.87;;
5630;SDS011;2837;50.990;7.124;2023-07-20T05:25:07;153.40;;;11.30;;
5630;SDS011;2837;50.990;7.124;2023-07-20T05:27:33;150.17;;;10.33;;
5630;SDS011;2837;50.990;7.124;2023-07-20T05:30:01;149.27;;;9.53;;
5630;SDS011;2837;50.990;7.124;2023-07-20T05:32:27;150.37;;;11.43;;
5630;SDS011;2837;50.990;7.124;2023-07-20T05:34:54;153.60;;;10.83;;
5630;SDS011;2837;50.990;7.124;2023-07-20T05:37:20;150.00;;;10.10;;
5630;SDS011;2837;50.990;7.124;2023-07-20T05:39:46;150.93;;;10.60;;
5630;SDS011;2837;50.990;7.124;2023-07-20T05:42:12;151.47;;;10.10;;
5630;SDS011;2837;50.990;7.124;2023-07-20T05:44:38;150.63;;;9.80;;
5630;SDS011;2837;50.990;7.124;2023-07-20T05:47:04;149.30;;;10.73;;
5630;SDS011;2837;50.990;7.124;2023-07-20T05:49:30;151.60;;;10.00;;
5630;SDS011;2837;50.990;7.124;2023-07-20T05:51:56;152.50;;;10.50;;
5630;SDS011;2837;50.990;7.124;2023-07-20T05:54:25;152.33;;;10.53;;
5630;SDS011;2837;50.990;7.124;2023-07-20T05:56:51;150.70;;;10.30;;
5630;SDS011;2837;50.990;7.124;2023-07-20T05:59:17;153.87;;;10.33;;
5630;SDS011;2837;50.990;7.124;2023-07-20T06:01:44;151.40;;;11.30;;
5630;SDS011;2837;50.990;7.124;2023-07-20T06:04:12;151.77;;;10.97;;
5630;SDS011;2837;50.990;7.124;2023-07-20T06:06:38;151.27;;;11.90;;
5630;SDS011;2837;50.990;7.124;2023-07-20T06:09:03;149.77;;;10.47;;
5630;SDS011;2837;50.990;7.124;2023-07-20T06:11:32;151.90;;;10.53;;
5630;SDS011;2837;50.990;7.124;2023-07-20T06:13:58;152.87;;;11.47;;
5630;SDS011;2837;50.990;7.124;2023-07-20T06:16:24;150.27;;;11.00;;
5630;SDS011;2837;50.990;7.124;2023-07-20T06:18:50;151.00;;;11.10;;
5630;SDS011;2837;50.990;7.124;2023-07-20T06:21:16;154.63;;;11.90;;
5630;SDS011;2837;50.990;7.124;2023-07-20T06:23:42;152.20;;;11.77;;
5630;SDS011;2837;50.990;7.124;2023-07-20T06:26:08;154.93;;;11.87;;
5630;SDS011;2837;50.990;7.124;2023-07-20T06:28:34;156.50;;;11.30;;
5630;SDS011;2837;50.990;7.124;2023-07-20T06:31:00;165.00;;;13.80;;
5630;SDS011;2837;50.990;7.124;2023-07-20T06:33:27;153.87;;;12.33;;
5630;SDS011;2837;50.990;7.124;2023-07-20T06:35:53;157.07;;;12.33;;
5630;SDS011;2837;50.990;7.124;2023-07-20T06:38:19;151.77;;;11.50;;
5630;SDS011;2837;50.990;7.124;2023-07-20T06:40:46;152.83;;;11.90;;
5630;SDS011;2837;50.990;7.124;2023-07-20T06:43:12;162.60;;;11.90;;
5630;SDS011;2837;50.990;7.124;2023-07-20T06:45:38;153.53;;;11.70;;
5630;SDS011;2837;50.990;7.124;2023-07-20T06:48:04;153.63;;;12.30;;
5630;SDS011;2837;50.990;7.124;2023-07-20T06:50:30;157.10;;;13.13;;
5630;SDS011;2837;50.990;7.124;2023-07-20T06:52:56;152.77;;;11.87;;
5630;SDS011;2837;50.990;7.124;2023-07-20T06:55:23;149.77;;;11.10;;
5630;SDS011;2837;50.990;7.124;2023-07-20T06:57:49;155.57;;;13.50;;
5630;SDS011;2837;50.990;7.124;2023-07-20T07:00:16;151.97;;;11.87;;
5630;SDS011;2837;50.990;7.124;2023-07-20T07:02:42;150.47;;;11.10;;
5630;SDS011;2837;50.990;7.124;2023-07-20T07:05:08;151.13;;;10.97;;
5630;SDS011;2837;50.990;7.124;2023-07-20T07:07:34;151.67;;;11.70;;
5630;SDS011;2837;50.990;7.124;2023-07-20T07:10:01;151.53;;;11.90;;
5630;SDS011;2837;50.990;7.124;2023-07-20T07:12:29;152.57;;;11.63;;
5630;SDS011;2837;50.990;7.124;2023-07-20T07:14:55;152.50;;;12.87;;
5630;SDS011;2837;50.990;7.124;2023-07-20T07:17:21;158.27;;;12.87;;
5630;SDS011;2837;50.990;7.124;2023-07-20T07:19:47;151.40;;;12.03;;
5630;SDS011;2837;50.990;7.124;2023-07-20T07:22:13;149.73;;;11.50;;
5630;SDS011;2837;50.990;7.124;2023-07-20T07:24:39;153.13;;;11.80;;
5630;SDS011;2837;50.990;7.124;2023-07-20T07:27:08;153.73;;;13.43;;
5630;SDS011;2837;50.990;7.124;2023-07-20T07:29:34;153.90;;;13.40;;
5630;SDS011;2837;50.990;7.124;2023-07-20T07:31:59;151.57;;;12.60;;
5630;SDS011;2837;50.990;7.124;2023-07-20T07:34:26;150.90;;;12.13;;
5630;SDS011;2837;50.990;7.124;2023-07-20T07:36:52;152.20;;;11.87;;
5630;SDS011;2837;50.990;7.124;2023-07-20T07:39:18;150.90;;;12.03;;
5630;SDS011;2837;50.990;7.124;2023-07-20T07:41:44;151.20;;;11.80;;
5630;SDS011;2837;50.990;7.124;2023-07-20T07:44:10;151.07;;;12.03;;
5630;SDS011;2837;50.990;7.124;2023-07-20T07:46:36;149.17;;;11.33;;
5630;SDS011;2837;50.990;7.124;2023-07-20T07:49:02;149.77;;;11.83;;
5630;SDS011;2837;50.990;7.124;2023-07-20T07:51:28;149.27;;;11.10;;
5630;SDS011;2837;50.990;7.124;2023-07-20T07:53:54;149.00;;;10.73;;
5630;SDS011;2837;50.990;7.124;2023-07-20T07:56:20;154.70;;;11.97;;
5630;SDS011;2837;50.990;7.124;2023-07-20T07:58:48;150.40;;;11.70;;
5630;SDS011;2837;50.990;7.124;2023-07-20T08:01:16;149.40;;;11.40;;
5630;SDS011;2837;50.990;7.124;2023-07-20T08:03:44;153.07;;;11.00;;
5630;SDS011;2837;50.990;7.124;2023-07-20T08:06:12;149.50;;;11.03;;
5630;SDS011;2837;50.990;7.124;2023-07-20T08:08:38;149.87;;;10.40;;
5630;SDS011;2837;50.990;7.124;2023-07-20T08:11:04;148.10;;;10.40;;
5630;SDS011;2837;50.990;7.124;2023-07-20T08:13:30;149.87;;;11.30;;
5630;SDS011;2837;50.990;7.124;2023-07-20T08:15:57;152.03;;;11.23;;
5630;SDS011;2837;50.990;7.124;2023-07-20T08:18:23;147.87;;;9.80;;
5630;SDS011;2837;50.990;7.124;2023-07-20T08:20:49;150.30;;;10.30;;
5630;SDS011;2837;50.990;7.124;2023-07-20T08:23:15;148.70;;;10.40;;
5630;SDS011;2837;50.990;7.124;2023-07-20T08:25:41;148.97;;;9.97;;
5630;SDS011;2837;50.990;7.124;2023-07-20T08:28:10;148.27;;;10.67;;
5630;SDS011;2837;50.990;7.124;2023-07-20T08:30:42;148.60;;;10.27;;
5630;SDS011;2837;50.990;7.124;2023-07-20T08:33:10;148.47;;;10.23;;
5630;SDS011;2837;50.990;7.124;2023-07-20T08:35:37;148.13;;;10.53;;
5630;SDS011;2837;50.990;7.124;2023-07-20T08:38:03;146.67;;;9.10;;
5630;SDS011;2837;50.990;7.124;2023-07-20T08:40:30;148.20;;;10.90;;
5630;SDS011;2837;50.990;7.124;2023-07-20T08:42:57;148.00;;;10.03;;
5630;SDS011;2837;50.990;7.124;2023-07-20T08:45:25;146.50;;;9.80;;
5630;SDS011;2837;50.990;7.124;2023-07-20T08:47:56;149.80;;;8.80;;
5630;SDS011;2837;50.990;7.124;2023-07-20T08:50:22;148.53;;;8.67;;
5630;SDS011;2837;50.990;7.124;2023-07-20T08:52:49;147.13;;;8.60;;
5630;SDS011;2837;50.990;7.124;2023-07-20T08:55:17;145.77;;;7.97;;
5630;SDS011;2837;50.990;7.124;2023-07-20T08:57:43;145.87;;;7.50;;
5630;SDS011;2837;50.990;7.124;2023-07-20T09:00:11;146.10;;;8.43;;
5630;SDS011;2837;50.990;7.124;2023-07-20T09:02:38;147.17;;;7.97;;
5630;SDS011;2837;50.990;7.124;2023-07-20T09:05:08;146.63;;;8.37;;
5630;SDS011;2837;50.990;7.124;2023-07-20T09:07:40;145.90;;;8.63;;
5630;SDS011;2837;50.990;7.124;2023-07-20T09:10:06;145.87;;;7.97;;
5630;SDS011;2837;50.990;7.124;2023-07-20T09:12:36;145.27;;;7.93;;
5630;SDS011;2837;50.990;7.124;2023-07-20T09:15:06;145.87;;;8.03;;
5630;SDS011;2837;50.990;7.124;2023-07-20T09:17:33;159.50;;;10.90;;
5630;SDS011;2837;50.990;7.124;2023-07-20T09:19:59;145.30;;;8.13;;
5630;SDS011;2837;50.990;7.124;2023-07-20T09:22:30;145.30;;;8.70;;
5630;SDS011;2837;50.990;7.124;2023-07-20T09:24:57;144.83;;;7.60;;
5630;SDS011;2837;50.990;7.124;2023-07-20T09:27:39;145.20;;;8.00;;
5630;SDS011;2837;50.990;7.124;2023-07-20T09:30:06;144.60;;;7.87;;
5630;SDS011;2837;50.990;7.124;2023-07-20T09:32:38;145.57;;;8.17;;
5630;SDS011;2837;50.990;7.124;2023-07-20T09:35:05;150.33;;;8.27;;
5630;SDS011;2837;50.990;7.124;2023-07-20T09:37:32;145.67;;;8.20;;
5630;SDS011;2837;50.990;7.124;2023-07-20T09:39:58;145.20;;;8.73;;
5630;SDS011;2837;50.990;7.124;2023-07-20T09:42:25;144.60;;;7.80;;
5630;SDS011;2837;50.990;7.124;2023-07-20T09:44:51;146.30;;;8.40;;
5630;SDS011;2837;50.990;7.124;2023-07-20T09:47:24;145.17;;;8.00;;
5630;SDS011;2837;50.990;7.124;2023-07-20T09:49:57;147.70;;;8.27;;
5630;SDS011;2837;50.990;7.124;2023-07-20T09:52:25;144.40;;;7.50;;
5630;SDS011;2837;50.990;7.124;2023-07-20T09:54:51;143.67;;;7.70;;
5630;SDS011;2837;50.990;7.124;2023-07-20T09:57:17;145.10;;;8.77;;
5630;SDS011;2837;50.990;7.124;2023-07-20T09:59:43;145.97;;;8.07;;
5630;SDS011;2837;50.990;7.124;2023-07-20T10:02:32;143.87;;;7.40;;
5630;SDS011;2837;50.990;7.124;2023-07-20T10:04:58;144.10;;;8.37;;
5630;SDS011;2837;50.990;7.124;2023-07-20T10:07:28;143.87;;;7.30;;
5630;SDS011;2837;50.990;7.124;2023-07-20T10:09:55;143.67;;;7.80;;
5630;SDS011;2837;50.990;7.124;2023-07-20T10:12:22;145.63;;;8.30;;
5630;SDS011;2837;50.990;7.124;2023-07-20T10:14:53;143.60;;;7.47;;
5630;SDS011;2837;50.990;7.124;2023-07-20T10:17:25;144.07;;;8.20;;
5630;SDS011;2837;50.990;7.124;2023-07-20T10:19:51;144.67;;;8.20;;
5630;SDS011;2837;50.990;7.124;2023-07-20T10:22:25;142.97;;;7.53;;
5630;SDS011;2837;50.990;7.124;2023-07-20T10:24:51;143.47;;;8.07;;
5630;SDS011;2837;50.990;7.124;2023-07-20T10:27:23;143.27;;;7.80;;
5630;SDS011;2837;50.990;7.124;2023-07-20T10:29:49;144.97;;;8.30;;
5630;SDS011;2837;50.990;7.124;2023-07-20T10:32:16;145.37;;;7.87;;
5630;SDS011;2837;50.990;7.124;2023-07-20T10:34:42;143.87;;;7.80;;
5630;SDS011;2837;50.990;7.124;2023-07-20T10:37:08;143.80;;;7.30;;
5630;SDS011;2837;50.990;7.124;2023-07-20T10:39:34;142.87;;;7.50;;
5630;SDS011;2837;50.990;7.124;2023-07-20T10:42:06;144.67;;;7.47;;
5630;SDS011;2837;50.990;7.124;2023-07-20T10:44:32;143.80;;;8.40;;
5630;SDS011;2837;50.990;7.124;2023-07-20T10:46:59;144.73;;;8.27;;
5630;SDS011;2837;50.990;7.124;2023-07-20T10:49:26;143.87;;;8.33;;
5630;SDS011;2837;50.990;7.124;2023-07-20T10:51:56;143.30;;;7.80;;
5630;SDS011;2837;50.990;7.124;2023-07-20T10:56:50;148.27;;;8.07;;
5630;SDS011;2837;50.990;7.124;2023-07-20T11:01:56;143.73;;;8.00;;
5630;SDS011;2837;50.990;7.124;2023-07-20T11:07:37;143.73;;;8.20;;
5630;SDS011;2837;50.990;7.124;2023-07-20T11:10:14;142.73;;;7.37;;
5630;SDS011;2837;50.990;7.124;2023-07-20T11:12:40;143.00;;;7.67;;
5630;SDS011;2837;50.990;7.124;2023-07-20T11:15:06;143.53;;;8.00;;
5630;SDS011;2837;50.990;7.124;2023-07-20T11:17:33;142.77;;;7.77;;
5630;SDS011;2837;50.990;7.124;2023-07-20T11:20:01;142.57;;;7.40;;
5630;SDS011;2837;50.990;7.124;2023-07-20T11:22:28;142.90;;;7.67;;
5630;SDS011;2837;50.990;7.124;2023-07-20T11:24:57;142.90;;;7.43;;
5630;SDS011;2837;50.990;7.124;2023-07-20T11:27:23;143.07;;;6.90;;
5630;SDS011;2837;50.990;7.124;2023-07-20T11:29:49;143.07;;;7.30;;
5630;SDS011;2837;50.990;7.124;2023-07-20T11:32:21;143.33;;;8.00;;
5630;SDS011;2837;50.990;7.124;2023-07-20T11:34:48;146.00;;;8.03;;
5630;SDS011;2837;50.990;7.124;2023-07-20T11:37:15;143.37;;;8.17;;
5630;SDS011;2837;50.990;7.124;2023-07-20T11:39:41;143.03;;;7.80;;
5630;SDS011;2837;50.990;7.124;2023-07-20T11:42:07;143.17;;;7.67;;
5630;SDS011;2837;50.990;7.124;2023-07-20T11:44:34;142.80;;;7.50;;
5630;SDS011;2837;50.990;7.124;2023-07-20T11:47:00;145.10;;;7.90;;
5630;SDS011;2837;50.990;7.124;2023-07-20T11:49:29;142.70;;;7.50;;
5630;SDS011;2837;50.990;7.124;2023-07-20T11:51:56;142.40;;;7.53;;
5630;SDS011;2837;50.990;7.124;2023-07-20T11:54:22;143.40;;;7.20;;
5630;SDS011;2837;50.990;7.124;2023-07-20T11:56:53;142.00;;;7.07;;
5630;SDS011;2837;50.990;7.124;2023-07-20T11:59:19;142.70;;;7.77;;
5630;SDS011;2837;50.990;7.124;2023-07-20T12:01:45;142.80;;;7.93;;
5630;SDS011;2837;50.990;7.124;2023-07-20T12:04:11;142.47;;;7.50;;
5630;SDS011;2837;50.990;7.124;2023-07-20T12:06:37;142.37;;;7.60;;
5630;SDS011;2837;50.990;7.124;2023-07-20T12:09:03;142.13;;;7.27;;
5630;SDS011;2837;50.990;7.124;2023-07-20T12:11:33;142.67;;;7.20;;
5630;SDS011;2837;50.990;7.124;2023-07-20T12:13:59;142.23;;;7.10;;
5630;SDS011;2837;50.990;7.124;2023-07-20T12:16:26;141.67;;;7.30;;
5630;SDS011;2837;50.990;7.124;2023-07-20T12:19:00;145.13;;;7.60;;
5630;SDS011;2837;50.990;7.124;2023-07-20T12:21:31;141.53;;;6.90;;
5630;SDS011;2837;50.990;7.124;2023-07-20T12:23:58;142.53;;;7.13;;
5630;SDS011;2837;50.990;7.124;2023-07-20T12:26:25;142.20;;;7.57;;
5630;SDS011;2837;50.990;7.124;2023-07-20T12:28:52;142.27;;;7.03;;
5630;SDS011;2837;50.990;7.124;2023-07-20T12:31:17;142.20;;;7.47;;
5630;SDS011;2837;50.990;7.124;2023-07-20T12:33:44;143.07;;;7.90;;
5630;SDS011;2837;50.990;7.124;2023-07-20T12:36:10;142.00;;;7.37;;
5630;SDS011;2837;50.990;7.124;2023-07-20T12:38:36;141.87;;;7.13;;
5630;SDS011;2837;50.990;7.124;2023-07-20T12:41:02;142.43;;;7.77;;
5630;SDS011;2837;50.990;7.124;2023-07-20T12:43:28;142.57;;;7.23;;
5630;SDS011;2837;50.990;7.124;2023-07-20T12:45:54;142.67;;;7.90;;
5630;SDS011;2837;50.990;7.124;2023-07-20T12:48:20;142.60;;;7.13;;
5630;SDS011;2837;50.990;7.124;2023-07-20T12:50:46;147.57;;;8.03;;
5630;SDS011;2837;50.990;7.124;2023-07-20T12:53:12;142.40;;;8.03;;
5630;SDS011;2837;50.990;7.124;2023-07-20T12:55:38;145.80;;;7.80;;
5630;SDS011;2837;50.990;7.124;2023-07-20T12:58:05;142.90;;;8.03;;
5630;SDS011;2837;50.990;7.124;2023-07-20T13:00:31;144.37;;;7.67;;
5630;SDS011;2837;50.990;7.124;2023-07-20T13:02:57;142.27;;;7.30;;
5630;SDS011;2837;50.990;7.124;2023-07-20T13:05:23;142.07;;;7.47;;
5630;SDS011;2837;50.990;7.124;2023-07-20T13:07:49;142.37;;;7.67;;
5630;SDS011;2837;50.990;7.124;2023-07-20T13:10:15;144.67;;;7.63;;
5630;SDS011;2837;50.990;7.124;2023-07-20T13:12:41;142.47;;;7.10;;
5630;SDS011;2837;50.990;7.124;2023-07-20T13:15:08;147.90;;;7.23;;
5630;SDS011;2837;50.990;7.124;2023-07-20T13:17:35;142.37;;;7.10;;
5630;SDS011;2837;50.990;7.124;2023-07-20T13:20:06;143.63;;;7.87;;
5630;SDS011;2837;50.990;7.124;2023-07-20T13:22:39;142.30;;;7.17;;
5630;SDS011;2837;50.990;7.124;2023-07-20T13:25:06;142.60;;;7.63;;
5630;SDS011;2837;50.990;7.124;2023-07-20T13:27:32;145.30;;;7.30;;
5630;SDS011;2837;50.990;7.124;2023-07-20T13:29:58;143.23;;;7.80;;
5630;SDS011;2837;50.990;7.124;2023-07-20T13:32:25;142.40;;;7.87;;
5630;SDS011;2837;50.990;7.124;2023-07-20T13:34:52;142.27;;;7.20;;
5630;SDS011;2837;50.990;7.124;2023-07-20T13:37:18;142.40;;;7.50;;
5630;SDS011;2837;50.990;7.124;2023-07-20T13:39:44;141.67;;;7.00;;
5630;SDS011;2837;50.990;7.124;2023-07-20T13:42:10;142.03;;;7.17;;
5630;SDS011;2837;50.990;7.124;2023-07-20T13:44:37;141.87;;;6.77;;
5630;SDS011;2837;50.990;7.124;2023-07-20T13:47:03;142.67;;;6.80;;
5630;SDS011;2837;50.990;7.124;2023-07-20T13:49:32;142.00;;;7.20;;
5630;SDS011;2837;50.990;7.124;2023-07-20T13:51:58;142.63;;;7.80;;
5630;SDS011;2837;50.990;7.124;2023-07-20T13:54:24;141.27;;;6.90;;
5630;SDS011;2837;50.990;7.124;2023-07-20T13:56:51;142.00;;;7.90;;
5630;SDS011;2837;50.990;7.124;2023-07-20T13:59:20;141.87;;;7.50;;
5630;SDS011;2837;50.990;7.124;2023-07-20T14:01:45;141.90;;;7.27;;
5630;SDS011;2837;50.990;7.124;2023-07-20T14:04:12;143.37;;;7.30;;
5630;SDS011;2837;50.990;7.124;2023-07-20T14:06:38;140.87;;;6.43;;
5630;SDS011;2837;50.990;7.124;2023-07-20T14:09:04;142.10;;;7.30;;
5630;SDS011;2837;50.990;7.124;2023-07-20T14:11:30;141.10;;;7.03;;
5630;SDS011;2837;50.990;7.124;2023-07-20T14:13:56;142.10;;;6.87;;
5630;SDS011;2837;50.990;7.124;2023-07-20T14:16:23;141.70;;;7.70;;
5630;SDS011;2837;50.990;7.124;2023-07-20T14:18:50;145.87;;;7.30;;
5630;SDS011;2837;50.990;7.124;2023-07-20T14:21:17;143.47;;;7.67;;
5630;SDS011;2837;50.990;7.124;2023-07-20T14:23:45;140.83;;;7.00;;
5630;SDS011;2837;50.990;7.124;2023-07-20T14:26:11;144.83;;;7.67;;
5630;SDS011;2837;50.990;7.124;2023-07-20T14:28:37;141.13;;;7.50;;
5630;SDS011;2837;50.990;7.124;2023-07-20T14:31:03;141.07;;;6.50;;
5630;SDS011;2837;50.990;7.124;2023-07-20T14:33:30;141.57;;;7.77;;
5630;SDS011;2837;50.990;7.124;2023-07-20T14:35:56;141.33;;;6.93;;
5630;SDS011;2837;50.990;7.124;2023-07-20T14:38:22;141.90;;;7.60;;
5630;SDS011;2837;50.990;7.124;2023-07-20T14:40:47;141.20;;;6.70;;
5630;SDS011;2837;50.990;7.124;2023-07-20T14:43:13;141.07;;;6.57;;
5630;SDS011;2837;50.990;7.124;2023-07-20T14:45:42;142.10;;;7.27;;
5630;SDS011;2837;50.990;7.124;2023-07-20T14:48:08;141.70;;;7.50;;
5630;SDS011;2837;50.990;7.124;2023-07-20T14:50:34;141.67;;;6.70;;
5630;SDS011;2837;50.990;7.124;2023-07-20T14:53:00;142.20;;;7.87;;
5630;SDS011;2837;50.990;7.124;2023-07-20T14:55:26;143.87;;;6.93;;
5630;SDS011;2837;50.990;7.124;2023-07-20T14:57:52;141.97;;;6.97;;
5630;SDS011;2837;50.990;7.124;2023-07-20T15:00:18;141.07;;;6.97;;
5630;SDS011;2837;50.990;7.124;2023-07-20T15:02:44;146.63;;;7.40;;
5630;SDS011;2837;50.990;7.124;2023-07-20T15:05:10;142.27;;;7.50;;
5630;SDS011;2837;50.990;7.124;2023-07-20T15:07:37;141.67;;;7.00;;
5630;SDS011;2837;50.990;7.124;2023-07-20T15:10:03;141.50;;;6.83;;
5630;SDS011;2837;50.990;7.124;2023-07-20T15:12:30;141.77;;;7.90;;
5630;SDS011;2837;50.990;7.124;2023-07-20T15:15:09;142.20;;;7.70;;
5630;SDS011;2837;50.990;7.124;2023-07-20T15:17:36;144.77;;;7.27;;
5630;SDS011;2837;50.990;7.124;2023-07-20T15:20:03;141.37;;;7.03;;
5630;SDS011;2837;50.990;7.124;2023-07-20T15:22:35;142.37;;;7.40;;
5630;SDS011;2837;50.990;7.124;2023-07-20T15:25:04;142.67;;;7.33;;
5630;SDS011;2837;50.990;7.124;2023-07-20T15:27:31;141.97;;;7.60;;
5630;SDS011;2837;50.990;7.124;2023-07-20T15:29:57;142.57;;;7.50;;
5630;SDS011;2837;50.990;7.124;2023-07-20T15:32:23;142.20;;;8.00;;
5630;SDS011;2837;50.990;7.124;2023-07-20T15:34:49;142.43;;;8.00;;
5630;SDS011;2837;50.990;7.124;2023-07-20T15:37:15;141.97;;;7.57;;
5630;SDS011;2837;50.990;7.124;2023-07-20T15:39:41;140.50;;;6.33;;
5630;SDS011;2837;50.990;7.124;2023-07-20T15:42:07;141.37;;;7.10;;
5630;SDS011;2837;50.990;7.124;2023-07-20T15:44:32;141.90;;;7.40;;
5630;SDS011;2837;50.990;7.124;2023-07-20T15:46:58;141.77;;;7.67;;
5630;SDS011;2837;50.990;7.124;2023-07-20T15:49:24;142.10;;;7.37;;
5630;SDS011;2837;50.990;7.124;2023-07-20T15:51:52;141.87;;;7.20;;
5630;SDS011;2837;50.990;7.124;2023-07-20T15:54:18;142.07;;;7.20;;
5630;SDS011;2837;50.990;7.124;2023-07-20T15:56:44;142.47;;;7.73;;
5630;SDS011;2837;50.990;7.124;2023-07-20T15:59:10;143.70;;;7.90;;
5630;SDS011;2837;50.990;7.124;2023-07-20T16:01:37;144.90;;;7.90;;
5630;SDS011;2837;50.990;7.124;2023-07-20T16:04:03;141.80;;;7.77;;
5630;SDS011;2837;50.990;7.124;2023-07-20T16:06:29;141.87;;;6.37;;
5630;SDS011;2837;50.990;7.124;2023-07-20T16:08:55;141.50;;;7.23;;
5630;SDS011;2837;50.990;7.124;2023-07-20T16:11:21;140.70;;;6.97;;
5630;SDS011;2837;50.990;7.124;2023-07-20T16:13:48;141.07;;;7.83;;
5630;SDS011;2837;50.990;7.124;2023-07-20T16:16:15;142.60;;;7.80;;
5630;SDS011;2837;50.990;7.124;2023-07-20T16:18:41;142.67;;;7.97;;
5630;SDS011;2837;50.990;7.124;2023-07-20T16:21:07;144.40;;;8.20;;
5630;SDS011;2837;50.990;7.124;2023-07-20T16:23:33;142.77;;;7.83;;
5630;SDS011;2837;50.990;7.124;2023-07-20T16:25:59;143.13;;;7.67;;
5630;SDS011;2837;50.990;7.124;2023-07-20T16:28:24;141.10;;;7.27;;
5630;SDS011;2837;50.990;7.124;2023-07-20T16:30:50;141.17;;;7.33;;
5630;SDS011;2837;50.990;7.124;2023-07-20T16:33:17;142.60;;;7.70;;
5630;SDS011;2837;50.990;7.124;2023-07-20T16:35:43;141.20;;;7.50;;
5630;SDS011;2837;50.990;7.124;2023-07-20T16:38:09;141.37;;;7.40;;
5630;SDS011;2837;50.990;7.124;2023-07-20T16:40:35;140.87;;;7.00;;
5630;SDS011;2837;50.990;7.124;2023-07-20T16:43:02;142.90;;;8.27;;
5630;SDS011;2837;50.990;7.124;2023-07-20T16:45:28;141.37;;;7.97;;
5630;SDS011;2837;50.990;7.124;2023-07-20T16:47:53;143.00;;;8.27;;
5630;SDS011;2837;50.990;7.124;2023-07-20T16:50:19;141.30;;;7.37;;
5630;SDS011;2837;50.990;7.124;2023-07-20T16:52:46;144.57;;;7.70;;
5630;SDS011;2837;50.990;7.124;2023-07-20T16:55:12;141.53;;;7.40;;
5630;SDS011;2837;50.990;7.124;2023-07-20T16:57:38;141.47;;;7.30;;
5630;SDS011;2837;50.990;7.124;2023-07-20T17:00:04;141.47;;;7.77;;
5630;SDS011;2837;50.990;7.124;2023-07-20T17:02:35;141.17;;;7.67;;
5630;SDS011;2837;50.990;7.124;2023-07-20T17:05:02;141.80;;;7.77;;
5630;SDS011;2837;50.990;7.124;2023-07-20T17:07:27;141.60;;;7.47;;
5630;SDS011;2837;50.990;7.124;2023-07-20T17:09:53;141.63;;;7.23;;
5630;SDS011;2837;50.990;7.124;2023-07-20T17:12:19;141.60;;;7.73;;
5630;SDS011;2837;50.990;7.124;2023-07-20T17:14:45;142.10;;;7.63;;
5630;SDS011;2837;50.990;7.124;2023-07-20T17:17:12;141.67;;;7.50;;
5630;SDS011;2837;50.990;7.124;2023-07-20T17:19:38;142.10;;;7.57;;
5630;SDS011;2837;50.990;7.124;2023-07-20T17:22:04;142.43;;;8.10;;
5630;SDS011;2837;50.990;7.124;2023-07-20T17:24:29;142.27;;;8.13;;
5630;SDS011;2837;50.990;7.124;2023-07-20T17:26:55;143.83;;;8.07;;
5630;SDS011;2837;50.990;7.124;2023-07-20T17:29:21;144.57;;;7.43;;
5630;SDS011;2837;50.990;7.124;2023-07-20T17:31:47;142.30;;;7.77;;
5630;SDS011;2837;50.990;7.124;2023-07-20T17:34:12;142.67;;;8.00;;
5630;SDS011;2837;50.990;7.124;2023-07-20T17:36:38;141.87;;;7.33;;
5630;SDS011;2837;50.990;7.124;2023-07-20T17:39:04;142.60;;;7.27;;
5630;SDS011;2837;50.990;7.124;2023-07-20T17:41:30;141.37;;;6.73;;
5630;SDS011;2837;50.990;7.124;2023-07-20T17:43:56;142.17;;;7.83;;
5630;SDS011;2837;50.990;7.124;2023-07-20T17:46:22;141.07;;;6.80;;
5630;SDS011;2837;50.990;7.124;2023-07-20T17:48:48;143.83;;;7.40;;
5630;SDS011;2837;50.990;7.124;2023-07-20T17:51:13;143.30;;;7.70;;
5630;SDS011;2837;50.990;7.124;2023-07-20T17:53:41;144.00;;;8.03;;
5630;SDS011;2837;50.990;7.124;2023-07-20T17:56:07;142.37;;;7.63;;
5630;SDS011;2837;50.990;7.124;2023-07-20T17:58:33;144.53;;;7.00;;
5630;SDS011;2837;50.990;7.124;2023-07-20T18:00:59;142.17;;;7.67;;
5630;SDS011;2837;50.990;7.124;2023-07-20T18:03:25;141.67;;;7.27;;
5630;SDS011;2837;50.990;7.124;2023-07-20T18:05:51;141.17;;;7.70;;
5630;SDS011;2837;50.990;7.124;2023-07-20T18:08:17;147.67;;;8.07;;
5630;SDS011;2837;50.990;7.124;2023-07-20T18:10:43;142.37;;;7.77;;
5630;SDS011;2837;50.990;7.124;2023-07-20T18:13:09;142.20;;;8.30;;
5630;SDS011;2837;50.990;7.124;2023-07-20T18:15:35;149.27;;;6.80;;
5630;SDS011;2837;50.990;7.124;2023-07-20T18:18:01;141.70;;;7.03;;
5630;SDS011;2837;50.990;7.124;2023-07-20T18:20:26;150.50;;;7.57;;
5630;SDS011;2837;50.990;7.124;2023-07-20T18:22:52;142.13;;;6.97;;
5630;SDS011;2837;50.990;7.124;2023-07-20T18:25:18;143.20;;;7.47;;
5630;SDS011;2837;50.990;7.124;2023-07-20T18:27:45;142.47;;;7.63;;
5630;SDS011;2837;50.990;7.124;2023-07-20T18:30:12;144.57;;;7.43;;
5630;SDS011;2837;50.990;7.124;2023-07-20T18:32:43;142.27;;;7.40;;
5630;SDS011;2837;50.990;7.124;2023-07-20T18:35:10;143.07;;;8.10;;
5630;SDS011;2837;50.990;7.124;2023-07-20T18:37:36;142.67;;;7.50;;
5630;SDS011;2837;50.990;7.124;2023-07-20T18:40:03;142.63;;;7.67;;
5630;SDS011;2837;50.990;7.124;2023-07-20T18:42:29;143.10;;;8.00;;
5630;SDS011;2837;50.990;7.124;2023-07-20T18:44:55;143.67;;;8.00;;
5630;SDS011;2837;50.990;7.124;2023-07-20T18:47:21;144.00;;;7.90;;
5630;SDS011;2837;50.990;7.124;2023-07-20T18:49:47;143.03;;;7.90;;
5630;SDS011;2837;50.990;7.124;2023-07-20T18:52:13;142.13;;;6.80;;
5630;SDS011;2837;50.990;7.124;2023-07-20T18:54:38;141.87;;;7.20;;
5630;SDS011;2837;50.990;7.124;2023-07-20T18:57:04;143.03;;;7.53;;
5630;SDS011;2837;50.990;7.124;2023-07-20T18:59:30;141.97;;;6.30;;
5630;SDS011;2837;50.990;7.124;2023-07-20T19:01:56;142.20;;;7.07;;
5630;SDS011;2837;50.990;7.124;2023-07-20T19:04:22;142.83;;;7.20;;
5630;SDS011;2837;50.990;7.124;2023-07-20T19:06:48;142.50;;;7.83;;
5630;SDS011;2837;50.990;7.124;2023-07-20T19:09:14;143.47;;;7.27;;
5630;SDS011;2837;50.990;7.124;2023-07-20T19:11:40;142.27;;;6.70;;
5630;SDS011;2837;50.990;7.124;2023-07-20T19:14:06;142.77;;;6.63;;
5630;SDS011;2837;50.990;7.124;2023-07-20T19:16:32;152.17;;;7.20;;
5630;SDS011;2837;50.990;7.124;2023-07-20T19:18:58;142.43;;;7.40;;
5630;SDS011;2837;50.990;7.124;2023-07-20T19:21:23;142.80;;;7.40;;
5630;SDS011;2837;50.990;7.124;2023-07-20T19:23:49;144.60;;;8.03;;
5630;SDS011;2837;50.990;7.124;2023-07-20T19:26:15;143.00;;;7.43;;
5630;SDS011;2837;50.990;7.124;2023-07-20T19:28:41;142.50;;;7.20;;
5630;SDS011;2837;50.990;7.124;2023-07-20T19:31:07;142.67;;;7.27;;
5630;SDS011;2837;50.990;7.124;2023-07-20T19:33:34;143.33;;;8.03;;
5630;SDS011;2837;50.990;7.124;2023-07-20T19:36:00;142.87;;;7.67;;
5630;SDS011;2837;50.990;7.124;2023-07-20T19:38:27;142.90;;;7.50;;
5630;SDS011;2837;50.990;7.124;2023-07-20T19:40:53;144.00;;;8.47;;
5630;SDS011;2837;50.990;7.124;2023-07-20T19:43:22;143.27;;;7.73;;
5630;SDS011;2837;50.990;7.124;2023-07-20T19:45:48;143.60;;;7.67;;
5630;SDS011;2837;50.990;7.124;2023-07-20T19:48:15;143.60;;;7.60;;
5630;SDS011;2837;50.990;7.124;2023-07-20T19:50:45;143.23;;;7.10;;